Claremore, OK

12:12 AM CST on February 21, 2017 (GMT -0600)
Claremore Regional

Weather History for KGCM - October, 2013

Change the Weather History Date:

Friday, October 4, 2013

  Actual Average (KTUL) Record (KTUL)
Temperature  
Mean Temperature 78 °F -  
Max Temperature 86 °F 79 °F 97 °F (1931)
Min Temperature 69 °F 55 °F 38 °F (2010)
Cooling Degree Days 12    
Growing Degree Days 28 (Base 50)    
Moisture  
Dew Point 67 °F    
Average Humidity 74    
Maximum Humidity 94    
Minimum Humidity 51    
Precipitation  
Precipitation 0.00 in - - ()
Sea Level Pressure  
Sea Level Pressure 29.88 in    
Wind  
Wind Speed 13 mph (South)    
Max Wind Speed 22 mph    
Max Gust Speed 28 mph    
Visibility 10 miles    
Events Rain    
Averages and records for this station are not official NWS values.
T = Trace of Precipitation, MM = Missing Value Source: NWS Daily Summary

Daily Weather History Graph

Daily Weather History Graph

Search for Another Location

Airport or City:

Trip Planner

Search our weather history database for the weather conditions in past years. The results will help you decide how hot, cold, wet, or windy it might be!

Date:

Astronomy

Oct. 04, 2013 Rise Set
Actual Time 7:19 AM CDT 7:00 PM CDT
Civil Twilight 6:54 AM CDT 7:26 PM CDT
Nautical Twilight 6:24 AM CDT 7:56 PM CDT
Astronomical Twilight 5:54 AM CDT 8:26 PM CDT
Moon 6:55 AM CDT (10/4) 6:44 PM CDT (10/4)
Length of Visible Light 12h 32m
Length of Day
11h 40m
Waning Crescent, 0% of the Moon is Illuminated
Oct 4
Waning Crescent
Oct 4
New
Oct 11
First Quarter
Oct 18
Full
Oct 26
Last Quarter

Hourly Weather History & Observations

Time (CDT) Temp. Heat Index Dew Point Humidity Pressure Visibility Wind Dir Wind Speed Gust Speed Precip Events Conditions
12:15 AM 73.4 °F - 68.0 °F 83% 29.88 in 10.0 mi SSE 11.5 mph 17.3 mph N/A   Clear
12:35 AM 73.4 °F - 68.0 °F 83% 29.88 in 10.0 mi SSE 9.2 mph - N/A   Clear
12:55 AM 73.4 °F - 68.0 °F 83% 29.88 in 10.0 mi SSE 12.7 mph - N/A   Clear
1:15 AM 71.6 °F - 68.0 °F 88% 29.88 in 10.0 mi SSE 12.7 mph 18.4 mph N/A   Clear
1:35 AM 71.6 °F - 68.0 °F 88% 29.88 in 10.0 mi SSE 11.5 mph 18.4 mph N/A   Clear
1:55 AM 71.6 °F - 68.0 °F 88% 29.88 in 10.0 mi SSE 11.5 mph - N/A   Clear
2:15 AM 71.6 °F - 68.0 °F 88% 29.88 in 10.0 mi SSE 12.7 mph 17.3 mph N/A   Clear
2:35 AM 71.6 °F - 68.0 °F 88% 29.88 in 10.0 mi SSE 11.5 mph 16.1 mph N/A   Clear
2:55 AM 71.6 °F - 68.0 °F 88% 29.88 in 10.0 mi SSE 12.7 mph 18.4 mph N/A   Clear
3:15 AM 71.6 °F - 68.0 °F 88% 29.88 in 10.0 mi SSE 12.7 mph - N/A   Clear
3:35 AM 71.6 °F - 68.0 °F 88% 29.88 in 10.0 mi SSE 12.7 mph 19.6 mph N/A   Clear
3:55 AM 71.6 °F - 68.0 °F 88% 29.88 in 10.0 mi SSE 12.7 mph 19.6 mph N/A   Clear
4:15 AM 71.6 °F - 68.0 °F 88% 29.87 in 10.0 mi SSE 12.7 mph 16.1 mph N/A   Clear
4:35 AM 71.6 °F - 68.0 °F 88% 29.88 in 10.0 mi SSE 11.5 mph - N/A   Clear
4:55 AM 71.6 °F - 68.0 °F 88% 29.88 in 10.0 mi SSE 12.7 mph 18.4 mph N/A   Clear
5:15 AM 71.6 °F - 68.0 °F 88% 29.88 in 10.0 mi SSE 13.8 mph 18.4 mph N/A   Clear
5:35 AM 71.6 °F - 68.0 °F 88% 29.88 in 10.0 mi South 12.7 mph 16.1 mph N/A   Clear
5:55 AM 71.6 °F - 68.0 °F 88% 29.88 in 10.0 mi SSE 12.7 mph 18.4 mph N/A   Clear
6:15 AM 71.6 °F - 68.0 °F 88% 29.88 in 10.0 mi SSE 11.5 mph - N/A   Clear
6:35 AM 71.6 °F - 68.0 °F 88% 29.89 in 10.0 mi SSE 12.7 mph 17.3 mph N/A   Clear
6:55 AM 69.8 °F - 68.0 °F 94% 29.89 in 10.0 mi South 11.5 mph 16.1 mph N/A   Clear
7:15 AM 69.8 °F - 68.0 °F 94% 29.90 in 10.0 mi South 11.5 mph 17.3 mph N/A   Clear
7:35 AM 69.8 °F - 68.0 °F 94% 29.90 in 10.0 mi South 11.5 mph 16.1 mph N/A   Clear
7:55 AM 71.6 °F - 68.0 °F 88% 29.90 in 10.0 mi South 12.7 mph 16.1 mph N/A   Clear
8:15 AM 71.6 °F - 68.0 °F 88% 29.90 in 10.0 mi South 13.8 mph - N/A   Clear
8:35 AM 71.6 °F - 68.0 °F 88% 29.91 in 10.0 mi South 13.8 mph 19.6 mph N/A   Clear
8:55 AM 73.4 °F - 68.0 °F 83% 29.90 in 10.0 mi South 12.7 mph 19.6 mph N/A   Clear
9:15 AM 73.4 °F - 69.8 °F 88% 29.90 in 10.0 mi SSE 15.0 mph 20.7 mph N/A   Scattered Clouds
9:35 AM 75.2 °F - 69.8 °F 83% 29.91 in 10.0 mi South 12.7 mph 19.6 mph N/A   Scattered Clouds
9:55 AM 77.0 °F - 69.8 °F 78% 29.91 in 10.0 mi SSW 15.0 mph 19.6 mph N/A   Scattered Clouds
10:15 AM 77.0 °F - 69.8 °F 78% 29.91 in 10.0 mi South 15.0 mph 20.7 mph N/A   Scattered Clouds
10:35 AM 78.8 °F - 69.8 °F 74% 29.91 in 10.0 mi South 19.6 mph 26.5 mph N/A   Scattered Clouds
10:55 AM 78.8 °F - 69.8 °F 74% 29.91 in 10.0 mi South 18.4 mph 26.5 mph N/A   Scattered Clouds
11:15 AM 80.6 °F 83.9 °F 69.8 °F 70% 29.91 in 10.0 mi South 19.6 mph 27.6 mph N/A   Scattered Clouds
11:35 AM 80.6 °F 83.2 °F 68.0 °F 65% 29.91 in 10.0 mi SSW 21.9 mph 27.6 mph N/A   Scattered Clouds
11:55 AM 82.4 °F 85.4 °F 68.0 °F 62% 29.91 in 10.0 mi South 15.0 mph 20.7 mph N/A   Scattered Clouds
12:15 PM 82.4 °F 85.4 °F 68.0 °F 62% 29.91 in 10.0 mi SSW 16.1 mph 23.0 mph N/A   Scattered Clouds
12:35 PM 82.4 °F 85.4 °F 68.0 °F 62% 29.91 in 10.0 mi South 16.1 mph 25.3 mph N/A   Scattered Clouds
12:55 PM 84.2 °F 87.3 °F 68.0 °F 58% 29.90 in 10.0 mi South 18.4 mph 24.2 mph N/A   Clear
1:15 PM 86.0 °F 89.4 °F 68.0 °F 55% 29.89 in 10.0 mi South 15.0 mph 24.2 mph N/A   Clear
1:35 PM 84.2 °F 87.3 °F 68.0 °F 58% 29.88 in 10.0 mi South 16.1 mph 20.7 mph N/A   Clear
1:55 PM 82.4 °F 85.4 °F 68.0 °F 62% 29.87 in 10.0 mi South 16.1 mph 23.0 mph N/A   Clear
2:15 PM 82.4 °F 85.4 °F 68.0 °F 62% 29.86 in 10.0 mi South 13.8 mph 21.9 mph N/A   Clear
2:35 PM 84.2 °F 86.6 °F 66.2 °F 55% 29.86 in 10.0 mi South 16.1 mph 24.2 mph N/A   Clear
2:55 PM 82.4 °F 84.6 °F 66.2 °F 58% 29.85 in 10.0 mi South 13.8 mph 24.2 mph N/A   Clear
3:15 PM 86.0 °F 88.2 °F 66.2 °F 51% 29.85 in 10.0 mi South 19.6 mph 23.0 mph N/A   Clear
3:35 PM 82.4 °F 84.6 °F 66.2 °F 58% 29.85 in 10.0 mi South 16.1 mph 24.2 mph N/A   Clear
3:55 PM 82.4 °F 84.6 °F 66.2 °F 58% 29.85 in 10.0 mi South 16.1 mph 24.2 mph N/A   Clear
4:15 PM 82.4 °F 83.9 °F 64.4 °F 54% 29.85 in 10.0 mi South 15.0 mph 23.0 mph N/A   Clear
4:35 PM 84.2 °F 86.6 °F 66.2 °F 55% 29.84 in 10.0 mi South 15.0 mph 21.9 mph N/A   Clear
4:55 PM 84.2 °F 87.3 °F 68.0 °F 58% 29.85 in 10.0 mi SSE 15.0 mph 20.7 mph N/A   Clear
5:15 PM 84.2 °F 87.3 °F 68.0 °F 58% 29.85 in 10.0 mi SSE 17.3 mph 25.3 mph N/A   Clear
5:35 PM 82.4 °F 85.4 °F 68.0 °F 62% 29.85 in 10.0 mi SSE 16.1 mph 26.5 mph N/A   Clear
5:55 PM 82.4 °F 85.4 °F 68.0 °F 62% 29.86 in 10.0 mi South 15.0 mph 21.9 mph N/A   Scattered Clouds
6:15 PM 80.6 °F 82.7 °F 66.2 °F 61% 29.85 in 10.0 mi South 15.0 mph 20.7 mph N/A   Clear
6:35 PM 80.6 °F 82.7 °F 66.2 °F 61% 29.85 in 10.0 mi South 15.0 mph - N/A   Clear
6:55 PM 78.8 °F - 66.2 °F 65% 29.84 in 10.0 mi SSE 11.5 mph 18.4 mph N/A   Clear
7:15 PM 78.8 °F - 66.2 °F 65% 29.83 in 10.0 mi SSE 13.8 mph 18.4 mph N/A   Clear
7:35 PM 77.0 °F - 66.2 °F 69% 29.85 in 10.0 mi SSE 10.4 mph - N/A   Clear
7:55 PM 77.0 °F - 66.2 °F 69% 29.86 in 10.0 mi SSE 8.1 mph - N/A   Clear
8:15 PM 77.0 °F - 66.2 °F 69% 29.88 in 10.0 mi SSE 6.9 mph - N/A   Clear
8:35 PM 77.0 °F - 66.2 °F 69% 29.88 in 10.0 mi SSE 8.1 mph - N/A   Clear
8:55 PM 75.2 °F - 66.2 °F 73% 29.88 in 10.0 mi SSE 6.9 mph - N/A   Clear
9:15 PM 73.4 °F - 66.2 °F 78% 29.88 in 10.0 mi SSE 6.9 mph - N/A   Clear
9:35 PM 73.4 °F - 66.2 °F 78% 29.88 in 10.0 mi SE 10.4 mph - N/A   Clear
9:55 PM 73.4 °F - 64.4 °F 73% 29.88 in 10.0 mi SSE 10.4 mph - N/A   Clear
10:15 PM 75.2 °F - 64.4 °F 69% 29.88 in 10.0 mi SSE 11.5 mph - N/A Rain Light Rain
10:35 PM 77.0 °F - 64.4 °F 65% 29.89 in 10.0 mi SSE 11.5 mph - N/A   Clear
10:55 PM 77.0 °F - 64.4 °F 65% 29.91 in 10.0 mi SSE 9.2 mph 17.3 mph N/A   Clear
11:15 PM 75.2 °F - 64.4 °F 69% 29.92 in 10.0 mi SSE 6.9 mph - N/A   Clear
11:35 PM 75.2 °F - 64.4 °F 69% 29.93 in 10.0 mi SSW 4.6 mph - N/A   Scattered Clouds
11:55 PM 73.4 °F - 64.4 °F 73% 29.93 in 10.0 mi South 3.5 mph - N/A   Mostly Cloudy